createdAt,value
2022-08-11T00:02:05.617Z,10.50
2022-08-11T00:07:19.650Z,6.90
2022-08-11T00:12:23.406Z,10.10
2022-08-11T00:17:32.063Z,8.80
2022-08-11T00:22:38.189Z,8.00
2022-08-11T00:27:42.473Z,8.90
2022-08-11T00:32:54.922Z,10.20
2022-08-11T00:38:00.037Z,9.50
2022-08-11T00:43:35.121Z,8.60
2022-08-11T00:49:12.534Z,9.80
2022-08-11T00:54:39.043Z,8.60
2022-08-11T01:00:06.493Z,9.40
2022-08-11T01:05:46.670Z,9.80
2022-08-11T01:11:08.222Z,8.30
2022-08-11T01:16:30.289Z,8.70
2022-08-11T01:21:51.523Z,7.00
2022-08-11T01:27:03.035Z,7.40
2022-08-11T01:32:23.968Z,6.00
2022-08-11T01:37:45.543Z,7.70
2022-08-11T01:43:15.977Z,9.40
2022-08-11T01:48:42.456Z,6.10
2022-08-11T01:53:47.789Z,7.30
2022-08-11T01:59:21.233Z,10.60
2022-08-11T02:04:46.955Z,8.60
2022-08-11T02:10:40.316Z,6.90
2022-08-11T02:15:50.308Z,6.40
2022-08-11T02:21:15.924Z,7.30
2022-08-11T02:26:24.482Z,6.60
2022-08-11T02:32:24.669Z,6.40
2022-08-11T02:37:33.369Z,7.80
2022-08-11T02:42:45.419Z,6.70
2022-08-11T02:48:17.907Z,8.40
2022-08-11T02:53:37.786Z,6.20
2022-08-11T02:59:42.108Z,7.50
2022-08-11T03:05:14.002Z,10.10
2022-08-11T03:10:32.644Z,7.10
2022-08-11T03:16:38.105Z,6.40
2022-08-11T03:22:01.522Z,5.70
2022-08-11T03:27:27.890Z,8.40
2022-08-11T03:33:17.403Z,8.20
2022-08-11T03:38:30.663Z,8.50
2022-08-11T03:43:50.136Z,8.50
2022-08-11T03:49:21.754Z,8.60
2022-08-11T03:55:13.963Z,7.90
2022-08-11T04:00:42.095Z,8.50
2022-08-11T04:06:03.330Z,6.30
2022-08-11T04:11:24.306Z,9.60
2022-08-11T04:16:36.140Z,7.30
2022-08-11T04:22:07.364Z,6.00
2022-08-11T04:27:37.399Z,8.60
2022-08-11T04:33:18.385Z,5.60
2022-08-11T04:38:33.499Z,5.90
2022-08-11T04:44:11.879Z,4.70
2022-08-11T04:55:03.967Z,7.60
2022-08-11T05:00:29.088Z,8.60
2022-08-11T05:05:57.251Z,7.20
2022-08-11T05:11:09.302Z,8.00
2022-08-11T05:16:34.730Z,6.10
2022-08-11T05:22:00.086Z,6.20
2022-08-11T05:27:26.505Z,11.10
2022-08-11T05:33:02.603Z,7.60
2022-08-11T05:38:31.941Z,5.90
2022-08-11T05:44:20.034Z,6.00
2022-08-11T05:49:42.259Z,4.90
2022-08-11T05:55:06.949Z,5.60
2022-08-11T06:00:11.894Z,4.30
2022-08-11T06:05:16.328Z,4.50
2022-08-11T06:10:51.792Z,4.30
2022-08-11T06:15:56.132Z,5.10
2022-08-11T06:21:00.674Z,3.50
2022-08-11T06:26:09.933Z,5.30
2022-08-11T06:31:15.453Z,5.00
2022-08-11T06:36:43.303Z,5.60
2022-08-11T06:42:06.683Z,8.20
2022-08-11T06:47:12.615Z,3.90
2022-08-11T06:52:34.943Z,5.60
2022-08-11T06:58:00.178Z,7.60
2022-08-11T07:03:13.025Z,4.80
2022-08-11T07:09:23.384Z,4.60
2022-08-11T07:14:48.657Z,3.60
2022-08-11T07:20:17.104Z,3.30
2022-08-11T07:25:41.335Z,4.00
2022-08-11T07:30:45.010Z,4.00
2022-08-11T07:35:51.116Z,3.30
2022-08-11T07:40:54.041Z,5.50
2022-08-11T07:46:15.890Z,3.40
2022-08-11T07:51:39.919Z,3.30
2022-08-11T07:56:55.037Z,2.20
2022-08-11T08:02:19.309Z,4.10
2022-08-11T08:07:42.243Z,3.10
2022-08-11T08:13:04.177Z,5.70
2022-08-11T08:18:25.569Z,2.90
2022-08-11T08:23:33.769Z,1.90
2022-08-11T08:28:37.174Z,2.30
2022-08-11T08:33:42.332Z,4.80
2022-08-11T08:38:51.235Z,3.10
2022-08-11T08:44:20.982Z,3.10
2022-08-11T08:49:29.532Z,2.70
2022-08-11T08:54:43.281Z,2.20
2022-08-11T08:59:51.359Z,3.90
2022-08-11T09:04:54.931Z,6.10
2022-08-11T09:15:05.936Z,6.00
2022-08-11T09:20:24.946Z,2.30
2022-08-11T09:25:49.321Z,3.40
2022-08-11T09:30:53.800Z,2.00
2022-08-11T09:35:57.955Z,2.50
2022-08-11T09:41:05.641Z,5.00
2022-08-11T09:46:10.036Z,3.60
2022-08-11T09:51:14.643Z,7.80
2022-08-11T09:56:39.080Z,2.60
2022-08-11T10:01:49.282Z,6.50
2022-08-11T10:07:01.883Z,3.20
2022-08-11T10:12:13.023Z,3.20
2022-08-11T10:17:18.862Z,5.80
2022-08-11T10:22:40.584Z,3.00
2022-08-11T10:28:17.767Z,1.90
2022-08-11T10:33:36.855Z,1.80
2022-08-11T10:38:40.353Z,4.30
2022-08-11T10:44:01.668Z,6.90
2022-08-11T10:49:06.650Z,1.90
2022-08-11T10:54:28.869Z,2.80
2022-08-11T10:59:34.525Z,2.20
2022-08-11T11:04:54.234Z,1.90
2022-08-11T11:10:02.008Z,5.80
2022-08-11T11:15:25.550Z,7.90
2022-08-11T11:20:41.617Z,3.30
2022-08-11T11:26:27.126Z,3.30
2022-08-11T11:31:36.591Z,5.90
2022-08-11T11:36:47.840Z,2.10
2022-08-11T11:41:53.482Z,3.60
2022-08-11T11:46:57.631Z,3.50
2022-08-11T11:52:01.085Z,2.70
2022-08-11T11:57:24.847Z,2.90
2022-08-11T12:02:28.366Z,1.60
2022-08-11T12:07:56.973Z,4.50
2022-08-11T12:13:36.087Z,5.10
2022-08-11T12:18:41.225Z,2.40
2022-08-11T12:24:06.527Z,1.80
2022-08-11T12:29:11.611Z,2.90
2022-08-11T12:34:16.172Z,7.00
2022-08-11T12:40:16.047Z,1.60
2022-08-11T12:45:28.234Z,2.20
2022-08-11T12:50:50.485Z,1.60
2022-08-11T12:56:19.782Z,3.40
2022-08-11T13:01:41.419Z,3.10
2022-08-11T13:06:44.840Z,5.70
2022-08-11T13:12:07.038Z,2.00
2022-08-11T13:17:43.572Z,2.10
2022-08-11T13:22:50.383Z,1.60
2022-08-11T13:27:57.187Z,1.60
2022-08-11T13:33:07.804Z,1.50
2022-08-11T13:38:18.927Z,2.30
2022-08-11T13:43:25.915Z,1.80
2022-08-11T13:48:28.877Z,3.70
2022-08-11T13:53:32.802Z,1.80
2022-08-11T13:58:40.087Z,5.10
2022-08-11T14:04:31.054Z,1.90
2022-08-11T14:09:10.836Z,3.80
2022-08-11T14:14:21.297Z,2.00
2022-08-11T14:19:26.167Z,1.70
2022-08-11T14:24:29.864Z,3.50
2022-08-11T14:29:44.812Z,1.80
2022-08-11T14:34:52.886Z,1.90
2022-08-11T14:40:03.822Z,7.10
2022-08-11T14:45:57.503Z,3.10
2022-08-11T14:51:02.118Z,2.90
2022-08-11T14:56:24.853Z,2.80
2022-08-11T15:01:46.425Z,2.90
2022-08-11T15:06:50.435Z,2.60
2022-08-11T15:12:31.511Z,2.60
2022-08-11T15:17:43.008Z,5.50
2022-08-11T15:23:04.659Z,4.30
2022-08-11T15:28:29.040Z,4.10
2022-08-11T15:33:51.647Z,3.70
2022-08-11T15:39:20.552Z,1.70
2022-08-11T15:45:03.568Z,2.80
2022-08-11T15:50:13.944Z,1.50
2022-08-11T15:55:19.145Z,1.90
2022-08-11T16:00:41.789Z,2.60
2022-08-11T16:05:53.267Z,2.10
2022-08-11T16:10:57.455Z,6.00
2022-08-11T16:16:14.964Z,5.10
2022-08-11T16:21:35.107Z,5.30
2022-08-11T16:27:11.606Z,6.10
2022-08-11T16:32:19.125Z,3.10
2022-08-11T16:37:42.255Z,5.10
2022-08-11T16:43:10.853Z,6.40
2022-08-11T16:48:35.422Z,4.40
2022-08-11T16:54:00.131Z,6.00
2022-08-11T16:59:18.237Z,5.40
2022-08-11T17:04:46.259Z,6.30
2022-08-11T17:10:39.281Z,7.80
2022-08-11T17:15:51.002Z,6.00
2022-08-11T17:20:55.621Z,5.20
2022-08-11T17:26:03.250Z,4.40
2022-08-11T17:31:26.332Z,4.00
2022-08-11T17:36:29.433Z,4.90
2022-08-11T17:41:50.919Z,6.30
2022-08-11T17:47:13.142Z,4.70
2022-08-11T17:52:35.662Z,2.70
2022-08-11T17:57:58.874Z,6.10
2022-08-11T18:03:21.592Z,3.70
2022-08-11T18:08:44.488Z,7.80
2022-08-11T18:14:08.339Z,9.70
2022-08-11T18:19:30.749Z,2.60
2022-08-11T18:24:58.566Z,5.80
2022-08-11T18:30:22.919Z,5.60
2022-08-11T18:35:47.332Z,5.00
2022-08-11T18:41:10.816Z,4.90
2022-08-11T18:46:36.977Z,3.20
2022-08-11T18:52:00.379Z,3.80
2022-08-11T18:57:24.967Z,5.80
2022-08-11T19:02:49.561Z,6.50
2022-08-11T19:08:14.343Z,4.30
2022-08-11T19:13:40.387Z,3.90
2022-08-11T19:19:07.750Z,4.80
2022-08-11T19:24:30.397Z,4.40
2022-08-11T19:30:11.973Z,4.00
2022-08-11T19:35:36.496Z,7.10
2022-08-11T19:40:59.802Z,4.30
2022-08-11T19:46:24.613Z,5.60
2022-08-11T19:51:53.458Z,3.80
2022-08-11T19:57:15.905Z,4.80
2022-08-11T20:02:38.523Z,6.40
2022-08-11T20:08:01.634Z,4.10
2022-08-11T20:13:26.575Z,3.50
2022-08-11T20:18:48.829Z,5.60
2022-08-11T20:24:10.104Z,6.60
2022-08-11T20:29:31.763Z,8.20
2022-08-11T20:34:55.219Z,3.50
2022-08-11T20:40:23.813Z,5.30
2022-08-11T20:45:55.171Z,4.00
2022-08-11T20:51:19.875Z,3.60
2022-08-11T20:56:47.580Z,5.80
2022-08-11T21:02:11.083Z,5.60
2022-08-11T21:07:35.894Z,7.60
2022-08-11T21:13:24.119Z,5.30
2022-08-11T21:18:48.048Z,6.70
2022-08-11T21:24:11.556Z,6.70
2022-08-11T21:29:34.187Z,5.20
2022-08-11T21:34:56.704Z,8.60
2022-08-11T21:40:20.897Z,5.20
2022-08-11T21:45:44.387Z,4.60
2022-08-11T21:51:06.236Z,3.70
2022-08-11T21:56:29.909Z,5.70
2022-08-11T22:01:52.160Z,7.60
2022-08-11T22:07:15.174Z,6.00
2022-08-11T22:12:41.009Z,5.60
2022-08-11T22:18:05.723Z,4.30
2022-08-11T22:23:35.814Z,6.40
2022-08-11T22:28:58.174Z,7.10
2022-08-11T22:34:20.806Z,7.80
2022-08-11T22:39:44.509Z,5.40
2022-08-11T22:45:06.183Z,5.50
2022-08-11T22:50:29.059Z,7.50
2022-08-11T22:55:51.211Z,7.70
2022-08-11T23:01:14.347Z,6.90
2022-08-11T23:06:37.982Z,3.60
2022-08-11T23:12:07.750Z,8.90
2022-08-11T23:17:32.739Z,6.00
2022-08-11T23:22:57.200Z,3.70
2022-08-11T23:28:21.491Z,4.40
2022-08-11T23:33:43.571Z,5.10
2022-08-11T23:39:05.280Z,3.50
2022-08-11T23:44:27.687Z,5.70
2022-08-11T23:49:49.540Z,5.20
2022-08-11T23:55:11.542Z,8.00
